createdAt,value
2022-10-23T00:00:31.414Z,26.00
2022-10-23T00:02:59.508Z,16.23
2022-10-23T00:05:27.813Z,16.33
2022-10-23T00:10:23.107Z,15.48
2022-10-23T00:12:50.215Z,17.02
2022-10-23T00:15:19.078Z,15.63
2022-10-23T00:17:45.843Z,18.08
2022-10-23T00:20:13.029Z,17.98
2022-10-23T00:22:39.644Z,20.35
2022-10-23T00:25:08.305Z,16.40
2022-10-23T00:27:35.173Z,20.77
2022-10-23T00:30:02.177Z,16.40
2022-10-23T00:32:28.922Z,20.88
2022-10-23T00:34:55.489Z,13.52
2022-10-23T00:37:21.982Z,18.02
2022-10-23T00:39:48.510Z,16.45
2022-10-23T00:42:19.927Z,16.98
2022-10-23T00:44:46.296Z,19.92
2022-10-23T00:47:14.050Z,15.73
2022-10-23T00:49:42.782Z,14.88
2022-10-23T00:52:12.372Z,16.83
2022-10-23T00:54:43.477Z,16.23
2022-10-23T00:57:13.614Z,14.43
2022-10-23T00:59:42.775Z,14.30
2022-10-23T01:02:09.934Z,15.80
2022-10-23T01:04:37.692Z,15.70
2022-10-23T01:07:24.143Z,14.57
2022-10-23T01:10:11.502Z,17.55
2022-10-23T01:12:51.853Z,16.88
2022-10-23T01:15:42.607Z,14.82
2022-10-23T01:18:35.577Z,19.23
2022-10-23T01:21:14.670Z,18.23
2022-10-23T01:23:47.699Z,16.38
2022-10-23T01:26:14.070Z,17.02
2022-10-23T01:29:08.774Z,16.88
2022-10-23T01:31:39.587Z,17.67
2022-10-23T01:34:12.913Z,17.23
2022-10-23T01:36:43.225Z,18.00
2022-10-23T01:39:19.101Z,16.65
2022-10-23T01:42:03.845Z,16.55
2022-10-23T01:44:41.882Z,16.52
2022-10-23T01:47:11.304Z,16.33
2022-10-23T01:49:41.891Z,13.40
2022-10-23T01:52:12.942Z,16.60
2022-10-23T01:54:44.098Z,16.40
2022-10-23T01:57:15.014Z,14.85
2022-10-23T01:59:50.437Z,15.52
2022-10-23T02:02:19.051Z,15.15
2022-10-23T02:05:04.426Z,13.80
2022-10-23T02:07:31.261Z,14.10
2022-10-23T02:09:58.420Z,13.25
2022-10-23T02:12:36.994Z,17.30
2022-10-23T02:15:12.284Z,15.27
2022-10-23T02:17:51.267Z,15.90
2022-10-23T02:20:41.030Z,16.27
2022-10-23T02:23:15.065Z,15.75
2022-10-23T02:25:57.115Z,13.57
2022-10-23T02:28:30.396Z,17.17
2022-10-23T02:30:59.546Z,13.27
2022-10-23T02:33:28.712Z,14.85
2022-10-23T02:35:55.179Z,15.90
2022-10-23T02:38:48.042Z,15.32
2022-10-23T02:44:07.623Z,15.43
2022-10-23T02:46:42.977Z,15.95
2022-10-23T02:49:35.757Z,13.57
2022-10-23T02:52:26.311Z,15.38
2022-10-23T02:55:14.385Z,13.10
2022-10-23T02:57:59.709Z,14.50
2022-10-23T03:00:29.901Z,16.27
2022-10-23T03:03:00.699Z,14.60
2022-10-23T03:05:38.876Z,16.90
2022-10-23T03:08:09.024Z,11.77
2022-10-23T03:10:35.689Z,17.45
2022-10-23T03:13:02.192Z,16.02
2022-10-23T03:15:28.724Z,13.15
2022-10-23T03:17:55.474Z,14.45
2022-10-23T03:20:22.409Z,16.88
2022-10-23T03:22:48.828Z,16.90
2022-10-23T03:25:15.387Z,14.45
2022-10-23T03:27:41.876Z,15.30
2022-10-23T03:30:09.219Z,14.35
2022-10-23T03:32:35.768Z,12.60
2022-10-23T03:35:02.258Z,12.75
2022-10-23T03:37:28.758Z,13.93
2022-10-23T03:39:55.279Z,12.85
2022-10-23T03:42:21.769Z,14.85
2022-10-23T03:44:48.217Z,16.90
2022-10-23T03:47:14.767Z,16.00
2022-10-23T03:49:41.208Z,11.80
2022-10-23T03:52:08.598Z,12.38
2022-10-23T03:54:35.479Z,10.85
2022-10-23T03:57:01.988Z,12.23
2022-10-23T03:59:28.906Z,11.20
2022-10-23T04:01:55.546Z,11.73
2022-10-23T04:04:22.056Z,12.15
2022-10-23T04:06:48.525Z,12.50
2022-10-23T04:09:15.320Z,11.70
2022-10-23T04:11:41.738Z,12.02
2022-10-23T04:14:08.252Z,12.27
2022-10-23T04:16:34.703Z,13.60
2022-10-23T04:19:01.199Z,16.15
2022-10-23T04:21:27.624Z,13.00
2022-10-23T04:23:54.146Z,13.00
2022-10-23T04:26:20.716Z,12.95
2022-10-23T04:28:47.240Z,14.50
2022-10-23T04:31:13.707Z,13.45
2022-10-23T04:33:40.165Z,12.07
2022-10-23T04:36:07.009Z,14.25
2022-10-23T04:38:33.512Z,11.70
2022-10-23T04:41:00.019Z,13.23
2022-10-23T04:43:26.487Z,13.13
2022-10-23T04:45:52.967Z,9.63
2022-10-23T04:48:19.471Z,11.50
2022-10-23T04:50:58.572Z,10.85
2022-10-23T04:53:25.984Z,11.95
2022-10-23T04:55:53.734Z,10.57
2022-10-23T04:58:20.973Z,14.05
2022-10-23T05:00:48.325Z,12.65
2022-10-23T05:03:15.672Z,16.25
2022-10-23T05:05:42.659Z,13.05
2022-10-23T05:08:09.325Z,13.55
2022-10-23T05:10:35.888Z,16.60
2022-10-23T05:13:03.634Z,12.77
2022-10-23T05:15:30.601Z,14.60
2022-10-23T05:18:11.021Z,11.80
2022-10-23T05:20:39.544Z,11.98
2022-10-23T05:23:10.505Z,11.93
2022-10-23T05:25:37.384Z,11.85
2022-10-23T05:28:04.106Z,13.98
2022-10-23T05:30:33.070Z,11.73
2022-10-23T05:33:01.559Z,12.20
2022-10-23T05:35:29.943Z,13.25
2022-10-23T05:40:24.623Z,13.13
2022-10-23T05:42:51.250Z,15.63
2022-10-23T05:45:17.703Z,11.52
2022-10-23T05:47:45.751Z,13.73
2022-10-23T05:50:12.588Z,10.15
2022-10-23T05:52:39.066Z,13.05
2022-10-23T05:55:05.913Z,13.70
2022-10-23T05:57:33.965Z,13.80
2022-10-23T06:00:00.525Z,11.18
2022-10-23T06:02:27.168Z,11.85
2022-10-23T06:04:53.636Z,13.07
2022-10-23T06:07:25.547Z,16.33
2022-10-23T06:09:52.963Z,15.95
2022-10-23T06:12:22.969Z,11.52
2022-10-23T06:14:49.788Z,14.70
2022-10-23T06:17:16.292Z,13.13
2022-10-23T06:19:44.222Z,13.98
2022-10-23T06:22:10.796Z,12.40
2022-10-23T06:24:37.295Z,13.55
2022-10-23T06:27:03.993Z,12.68
2022-10-23T06:29:30.538Z,14.23
2022-10-23T06:31:56.998Z,15.27
2022-10-23T06:34:23.540Z,13.80
2022-10-23T06:36:50.072Z,12.05
2022-10-23T06:39:16.610Z,12.60
2022-10-23T06:41:44.352Z,12.13
2022-10-23T06:44:11.364Z,16.23
2022-10-23T06:46:37.834Z,15.18
2022-10-23T06:49:04.390Z,14.48
2022-10-23T06:51:30.900Z,15.55
2022-10-23T06:53:57.566Z,15.15
2022-10-23T06:56:29.061Z,14.43
2022-10-23T06:58:56.035Z,16.45
2022-10-23T07:01:22.809Z,13.43
2022-10-23T07:03:49.468Z,15.05
2022-10-23T07:06:16.071Z,15.65
2022-10-23T07:08:42.500Z,16.10
2022-10-23T07:11:11.278Z,14.88
2022-10-23T07:13:38.840Z,13.18
2022-10-23T07:16:17.879Z,14.75
2022-10-23T07:18:44.817Z,14.40
2022-10-23T07:21:11.575Z,13.52
2022-10-23T07:23:38.573Z,15.93
2022-10-23T07:26:10.679Z,31.75
2022-10-23T07:28:37.775Z,21.80
2022-10-23T07:31:04.442Z,25.98
2022-10-23T07:33:30.898Z,19.40
2022-10-23T07:35:57.364Z,19.23
2022-10-23T07:38:23.952Z,17.42
2022-10-23T07:40:50.480Z,16.35
2022-10-23T07:43:18.513Z,24.00
2022-10-23T07:45:48.493Z,22.83
2022-10-23T07:48:15.091Z,20.15
2022-10-23T07:50:41.741Z,17.83
2022-10-23T07:53:16.465Z,29.13
2022-10-23T07:55:42.901Z,16.52
2022-10-23T07:58:09.468Z,12.52
2022-10-23T08:00:38.774Z,13.60
2022-10-23T08:03:05.289Z,13.90
2022-10-23T08:05:31.793Z,17.83
2022-10-23T08:07:58.214Z,13.32
2022-10-23T08:10:24.777Z,12.60
2022-10-23T08:12:51.262Z,13.73
2022-10-23T08:15:17.763Z,16.25
2022-10-23T08:17:44.465Z,13.02
2022-10-23T08:20:13.577Z,12.73
2022-10-23T08:22:40.198Z,12.60
2022-10-23T08:25:06.999Z,12.43
2022-10-23T08:27:33.536Z,14.85
2022-10-23T08:30:00.042Z,13.50
2022-10-23T08:32:30.310Z,12.65
2022-10-23T08:34:56.799Z,11.93
2022-10-23T08:37:24.012Z,13.10
2022-10-23T08:39:52.653Z,13.25
2022-10-23T08:42:27.481Z,13.02
2022-10-23T08:44:57.218Z,13.05
2022-10-23T08:47:34.845Z,12.70
2022-10-23T08:50:34.790Z,12.48
2022-10-23T08:53:23.829Z,12.52
2022-10-23T08:55:59.428Z,9.98
2022-10-23T08:58:35.582Z,22.60
2022-10-23T09:01:18.016Z,18.42
2022-10-23T09:03:44.604Z,14.30
2022-10-23T09:06:42.128Z,14.55
2022-10-23T09:09:14.802Z,12.27
2022-10-23T09:12:04.973Z,13.13
2022-10-23T09:15:08.057Z,10.27
2022-10-23T09:17:41.408Z,9.55
2022-10-23T09:20:31.581Z,10.32
2022-10-23T09:23:02.346Z,12.27
2022-10-23T09:25:37.864Z,11.57
2022-10-23T09:28:05.723Z,10.25
2022-10-23T09:30:34.152Z,9.98
2022-10-23T09:33:12.276Z,8.27
2022-10-23T09:35:38.832Z,10.35
2022-10-23T09:38:05.291Z,12.05
2022-10-23T09:40:40.448Z,10.80
2022-10-23T09:43:21.791Z,9.02
2022-10-23T09:45:57.751Z,10.30
2022-10-23T09:48:24.267Z,10.77
2022-10-23T09:50:59.903Z,10.02
2022-10-23T09:53:29.253Z,9.68
2022-10-23T09:55:58.927Z,10.32
2022-10-23T09:58:40.261Z,9.68
2022-10-23T10:01:06.863Z,14.25
2022-10-23T10:03:33.408Z,11.02
2022-10-23T10:06:03.008Z,10.45
2022-10-23T10:08:39.317Z,13.23
2022-10-23T10:11:38.592Z,17.55
2022-10-23T10:14:17.395Z,53.35
2022-10-23T10:16:51.835Z,33.80
2022-10-23T10:20:10.846Z,24.67
2022-10-23T10:22:52.930Z,8.90
2022-10-23T10:25:40.409Z,10.73
2022-10-23T10:28:44.532Z,9.82
2022-10-23T10:31:18.380Z,7.32
2022-10-23T10:33:55.822Z,11.43
2022-10-23T10:36:34.475Z,10.45
2022-10-23T10:39:03.963Z,8.57
2022-10-23T10:41:52.281Z,9.27
2022-10-23T10:44:34.051Z,8.50
2022-10-23T10:47:25.642Z,10.25
2022-10-23T10:49:59.683Z,8.70
2022-10-23T10:52:52.096Z,12.15
2022-10-23T10:55:30.720Z,9.63
2022-10-23T10:58:12.947Z,9.73
2022-10-23T11:00:39.432Z,9.57
2022-10-23T11:03:09.047Z,7.50
2022-10-23T11:05:43.004Z,10.05
2022-10-23T11:08:15.181Z,10.25
2022-10-23T11:10:45.769Z,25.63
2022-10-23T11:13:27.447Z,36.95
2022-10-23T11:15:59.149Z,18.45
2022-10-23T11:18:29.318Z,19.00
2022-10-23T11:21:17.317Z,17.85
2022-10-23T11:24:05.622Z,12.70
2022-10-23T11:27:12.534Z,13.27
2022-10-23T11:29:46.532Z,17.92
2022-10-23T11:32:47.447Z,10.07
2022-10-23T11:35:32.508Z,11.02
2022-10-23T11:38:24.067Z,7.45
2022-10-23T11:40:54.775Z,7.90
2022-10-23T11:43:33.430Z,7.18
2022-10-23T11:46:13.309Z,11.55
2022-10-23T11:48:42.771Z,7.70
2022-10-23T11:51:36.059Z,9.65
2022-10-23T11:54:24.474Z,8.32
2022-10-23T11:57:13.337Z,8.73
2022-10-23T11:59:45.611Z,7.40
2022-10-23T12:02:28.013Z,12.10
2022-10-23T12:04:55.534Z,6.45
2022-10-23T12:07:27.451Z,7.43
2022-10-23T12:10:12.494Z,10.60
2022-10-23T12:12:40.972Z,7.25
2022-10-23T12:15:11.833Z,9.82
2022-10-23T12:17:40.099Z,8.27
2022-10-23T12:20:12.815Z,9.32
2022-10-23T12:23:02.833Z,8.70
2022-10-23T12:26:01.362Z,7.35
2022-10-23T12:31:13.098Z,7.32
2022-10-23T12:34:01.586Z,8.70
2022-10-23T12:36:40.705Z,8.95
2022-10-23T12:39:26.847Z,9.13
2022-10-23T12:41:53.846Z,8.77
2022-10-23T12:44:20.912Z,6.95
2022-10-23T12:46:50.062Z,6.38
2022-10-23T12:49:22.291Z,8.57
2022-10-23T12:51:59.108Z,9.77
2022-10-23T12:54:27.022Z,10.57
2022-10-23T13:01:54.624Z,7.53
2022-10-23T13:04:36.536Z,7.93
2022-10-23T13:07:03.988Z,9.48
2022-10-23T13:09:38.566Z,7.00
2022-10-23T13:12:07.339Z,6.43
2022-10-23T13:14:38.213Z,7.15
2022-10-23T13:17:10.664Z,8.88
2022-10-23T13:19:37.619Z,8.02
2022-10-23T13:22:16.527Z,7.72
2022-10-23T13:24:43.793Z,7.03
2022-10-23T13:27:33.276Z,8.10
2022-10-23T13:30:00.327Z,5.80
2022-10-23T13:32:30.172Z,7.95
2022-10-23T13:35:20.969Z,6.78
2022-10-23T13:37:49.148Z,7.13
2022-10-23T13:40:27.367Z,6.20
2022-10-23T13:42:55.832Z,8.63
2022-10-23T13:45:25.062Z,8.30
2022-10-23T13:47:51.794Z,8.63
2022-10-23T13:50:19.014Z,8.35
2022-10-23T13:52:45.487Z,4.93
2022-10-23T13:55:33.588Z,7.40
2022-10-23T13:58:00.042Z,5.93
2022-10-23T14:00:26.525Z,7.00
2022-10-23T14:05:19.576Z,9.23
2022-10-23T14:07:46.289Z,8.80
2022-10-23T14:10:12.940Z,7.18
2022-10-23T14:12:43.759Z,7.22
2022-10-23T14:15:11.594Z,6.63
2022-10-23T14:17:38.272Z,6.75
2022-10-23T14:20:06.513Z,6.47
2022-10-23T14:22:33.262Z,7.43
2022-10-23T14:24:59.719Z,5.75
2022-10-23T14:27:26.180Z,8.40
2022-10-23T14:29:52.941Z,6.10
2022-10-23T14:32:19.441Z,7.70
2022-10-23T14:34:51.076Z,5.55
2022-10-23T14:37:18.422Z,7.03
2022-10-23T14:39:49.723Z,6.70
2022-10-23T14:42:16.899Z,5.30
2022-10-23T14:44:43.580Z,7.28
2022-10-23T14:47:10.172Z,8.65
2022-10-23T14:49:36.731Z,6.70
2022-10-23T14:52:03.334Z,6.88
2022-10-23T14:54:31.290Z,6.85
2022-10-23T14:56:57.758Z,7.13
2022-10-23T14:59:24.336Z,8.52
2022-10-23T15:01:50.983Z,8.43
2022-10-23T15:04:17.698Z,6.93
2022-10-23T15:06:46.262Z,9.55
2022-10-23T15:09:13.609Z,7.43
2022-10-23T15:11:40.126Z,6.20
2022-10-23T15:14:06.777Z,9.40
2022-10-23T15:16:33.576Z,8.52
2022-10-23T15:19:00.082Z,10.82
2022-10-23T15:21:26.580Z,9.60
2022-10-23T15:23:54.791Z,9.20
2022-10-23T15:26:23.151Z,7.63
2022-10-23T15:28:57.923Z,10.27
2022-10-23T15:31:42.966Z,8.65
2022-10-23T15:34:11.822Z,10.77
2022-10-23T15:36:38.571Z,8.15
2022-10-23T15:39:09.862Z,7.75
2022-10-23T15:41:38.594Z,8.13
2022-10-23T15:44:06.180Z,9.38
2022-10-23T15:46:33.376Z,8.02
2022-10-23T15:48:59.970Z,7.15
2022-10-23T15:51:26.757Z,7.90
2022-10-23T15:53:53.305Z,7.60
2022-10-23T15:56:19.870Z,8.10
2022-10-23T15:58:46.325Z,9.00
2022-10-23T16:01:12.997Z,9.77
2022-10-23T16:03:39.615Z,7.97
2022-10-23T16:06:08.839Z,7.72
2022-10-23T16:08:35.950Z,7.85
2022-10-23T16:11:03.545Z,7.43
2022-10-23T16:13:30.013Z,8.70
2022-10-23T16:15:56.476Z,8.30
2022-10-23T16:18:23.466Z,8.55
2022-10-23T16:20:55.081Z,16.38
2022-10-23T16:23:21.731Z,9.98
2022-10-23T16:25:48.237Z,9.63
2022-10-23T16:28:14.681Z,9.85
2022-10-23T16:30:42.351Z,11.48
2022-10-23T16:33:09.288Z,12.35
2022-10-23T16:35:36.672Z,19.90
2022-10-23T16:38:03.640Z,13.13
2022-10-23T16:40:30.199Z,10.07
2022-10-23T16:42:57.812Z,11.27
2022-10-23T16:45:24.313Z,10.38
2022-10-23T16:47:50.826Z,18.52
2022-10-23T16:50:17.665Z,12.63
2022-10-23T16:52:44.470Z,11.38
2022-10-23T16:55:11.268Z,11.88
2022-10-23T16:57:37.735Z,10.57
2022-10-23T17:00:05.765Z,11.20
2022-10-23T17:02:32.643Z,9.82
2022-10-23T17:04:59.510Z,9.07
2022-10-23T17:07:25.947Z,12.70
2022-10-23T17:09:52.542Z,8.32
2022-10-23T17:12:19.013Z,10.75
2022-10-23T17:14:45.418Z,9.57
2022-10-23T17:17:11.915Z,9.48
2022-10-23T17:19:45.502Z,11.48
2022-10-23T17:24:41.269Z,11.57
2022-10-23T17:27:08.269Z,12.43
2022-10-23T17:29:35.172Z,7.43
2022-10-23T17:32:01.665Z,8.48
2022-10-23T17:34:28.149Z,11.23
2022-10-23T17:36:55.338Z,9.25
2022-10-23T17:39:25.446Z,8.20
2022-10-23T17:41:52.679Z,10.82
2022-10-23T17:44:19.709Z,8.68
2022-10-23T17:46:46.231Z,11.85
2022-10-23T17:49:12.761Z,10.60
2022-10-23T17:51:39.519Z,8.77
2022-10-23T17:54:08.305Z,9.82
2022-10-23T17:56:37.603Z,10.18
2022-10-23T17:59:13.991Z,10.43
2022-10-23T18:01:42.746Z,12.77
2022-10-23T18:04:09.790Z,9.23
2022-10-23T18:06:45.302Z,8.70
2022-10-23T18:09:12.969Z,9.20
2022-10-23T18:11:45.366Z,8.98
2022-10-23T18:14:14.988Z,10.30
2022-10-23T18:16:42.225Z,9.90
2022-10-23T18:19:09.103Z,8.48
2022-10-23T18:21:36.467Z,7.50
2022-10-23T18:24:03.738Z,8.98
2022-10-23T18:26:32.244Z,8.93
2022-10-23T18:28:59.560Z,8.90
2022-10-23T18:31:30.166Z,11.10
2022-10-23T18:33:58.386Z,9.75
2022-10-23T18:36:28.640Z,9.23
2022-10-23T18:41:28.066Z,8.68
2022-10-23T18:43:55.016Z,7.93
2022-10-23T18:46:22.146Z,9.93
2022-10-23T18:48:50.838Z,7.47
2022-10-23T18:51:23.834Z,9.85
2022-10-23T18:53:50.935Z,6.93
2022-10-23T18:56:23.593Z,9.38
2022-10-23T18:58:56.149Z,7.60
2022-10-23T19:01:24.051Z,8.00
2022-10-23T19:11:12.140Z,12.18
2022-10-23T19:13:40.371Z,12.48
2022-10-23T19:16:28.516Z,12.90
2022-10-23T19:18:59.114Z,8.20
2022-10-23T19:21:31.336Z,6.60
2022-10-23T19:24:04.809Z,7.68
2022-10-23T19:26:34.353Z,7.20
2022-10-23T19:29:01.146Z,8.88
2022-10-23T19:31:27.696Z,9.02
2022-10-23T19:33:54.229Z,9.45
2022-10-23T19:36:23.541Z,9.80
2022-10-23T19:38:50.591Z,11.45
2022-10-23T19:41:18.319Z,8.18
2022-10-23T19:43:45.221Z,6.82
2022-10-23T19:46:12.303Z,8.35
2022-10-23T19:48:44.285Z,9.40
2022-10-23T19:51:12.971Z,7.60
2022-10-23T19:53:41.247Z,7.85
2022-10-23T19:56:09.690Z,8.77
2022-10-23T19:58:36.307Z,7.68
2022-10-23T20:01:15.761Z,7.78
2022-10-23T20:03:45.463Z,7.85
2022-10-23T20:06:13.969Z,10.82
2022-10-23T20:08:41.350Z,7.72
2022-10-23T20:11:09.507Z,8.75
2022-10-23T20:16:02.713Z,10.05
2022-10-23T20:18:29.240Z,9.73
2022-10-23T20:20:55.821Z,8.48
2022-10-23T20:23:22.385Z,6.90
2022-10-23T20:25:48.887Z,7.20
2022-10-23T20:28:15.532Z,6.80
2022-10-23T20:30:42.670Z,7.55
2022-10-23T20:33:09.433Z,6.40
2022-10-23T20:35:41.345Z,8.68
2022-10-23T20:38:08.350Z,8.75
2022-10-23T20:40:35.203Z,5.63
2022-10-23T20:43:01.715Z,5.85
2022-10-23T20:45:28.232Z,5.97
2022-10-23T20:47:54.755Z,5.53
2022-10-23T20:50:23.853Z,5.15
2022-10-23T20:52:50.942Z,5.65
2022-10-23T20:55:18.164Z,5.55
2022-10-23T20:57:44.932Z,5.43
2022-10-23T21:00:12.201Z,6.10
2022-10-23T21:02:38.785Z,4.22
2022-10-23T21:05:05.837Z,6.85
2022-10-23T21:07:32.333Z,4.95
2022-10-23T21:09:58.894Z,5.90
2022-10-23T21:12:25.474Z,4.57
2022-10-23T21:14:53.552Z,5.18
2022-10-23T21:17:20.428Z,5.93
2022-10-23T21:19:47.148Z,4.78
2022-10-23T21:22:13.696Z,3.67
2022-10-23T21:24:40.241Z,5.47
2022-10-23T21:27:06.800Z,5.43
2022-10-23T21:29:33.374Z,3.88
2022-10-23T21:32:03.466Z,4.07
2022-10-23T21:34:30.929Z,4.60
2022-10-23T21:37:14.231Z,5.22
2022-10-23T21:39:42.948Z,4.18
2022-10-23T21:44:36.341Z,4.63
2022-10-23T21:47:02.843Z,6.28
2022-10-23T21:49:29.373Z,3.95
2022-10-23T21:51:55.905Z,3.25
2022-10-23T21:54:22.802Z,4.13
2022-10-23T21:56:51.740Z,4.13
2022-10-23T21:59:20.882Z,4.95
2022-10-23T22:01:48.569Z,4.70
2022-10-23T22:04:17.424Z,5.28
2022-10-23T22:06:45.271Z,4.05
2022-10-23T22:09:14.578Z,4.82
2022-10-23T22:11:41.925Z,4.47
2022-10-23T22:14:08.540Z,3.78
2022-10-23T22:16:35.040Z,4.88
2022-10-23T22:19:01.630Z,4.28
2022-10-23T22:21:29.755Z,5.18
2022-10-23T22:26:45.526Z,4.25
2022-10-23T22:29:18.722Z,5.28
2022-10-23T22:31:49.604Z,5.72
2022-10-23T22:34:47.765Z,9.73
2022-10-23T22:37:12.433Z,5.95
2022-10-23T22:39:40.067Z,6.65
2022-10-23T22:42:07.037Z,4.90
2022-10-23T22:44:33.542Z,6.55
2022-10-23T22:47:00.115Z,7.30
2022-10-23T22:49:26.669Z,6.35
2022-10-23T22:51:53.218Z,5.85
2022-10-23T22:54:19.681Z,6.65
2022-10-23T22:56:46.166Z,6.60
2022-10-23T22:59:12.692Z,4.78
2022-10-23T23:01:45.887Z,3.70
2022-10-23T23:04:36.844Z,7.15
2022-10-23T23:07:04.504Z,5.93
2022-10-23T23:09:31.105Z,5.00
2022-10-23T23:11:57.823Z,8.60
2022-10-23T23:14:24.614Z,5.90
2022-10-23T23:16:52.730Z,5.50
2022-10-23T23:19:19.393Z,6.68
2022-10-23T23:21:45.874Z,7.82
2022-10-23T23:24:12.398Z,4.57
2022-10-23T23:26:39.073Z,5.85
2022-10-23T23:29:05.690Z,6.55
2022-10-23T23:31:32.100Z,7.35
2022-10-23T23:33:58.616Z,5.55
2022-10-23T23:36:27.448Z,4.28
2022-10-23T23:38:55.498Z,8.55
2022-10-23T23:41:22.344Z,6.22
2022-10-23T23:43:49.482Z,5.72
2022-10-23T23:46:16.994Z,7.18
2022-10-23T23:48:47.780Z,6.20
2022-10-23T23:51:16.596Z,6.80
2022-10-23T23:53:43.575Z,7.65
2022-10-23T23:56:10.108Z,7.00
2022-10-23T23:58:36.625Z,7.28
